メインページ
METAR-TAF:

METAR-TAF

空港 :

神戸空港

神戸, 日本

緯度: 34-37-58N, 経度: 135-13-26E, 海抜: 7m

現時点の気象観測

当レポートは21分前の07:00(UTC)に作成
西/南西の風 6kt
気温 30°C
湿度 70%
気圧 1007 hPa
視程10km以上
高度3000ftの雲はほとんどない
高度4000ftの雲は散在している
千切れ雲あり

METAR: RJBE 200700Z 25006KT 9999 FEW030 SCT040 BKN/// 30/24 Q1007

時間: 16:21 (07:21 UTC)


TAF: 見つかりません

4,000以上の空港の気象観測と天気予報(METAR報とTAF報)

利用可能な観測所は地図上に黄色い丸と赤い丸で示す。

丸の上にカーソルを重ねると観測所名を参照できる。

次にクリックすると気象観測と天気予報を参照できる。

マップの切り替え:黒色「×」印の緑ボタンをクリックして拡大、「-」印の緑ボタンをクリックして縮小、緑色の三角印をクリックして隣りの地図に切り替え


METAR-TAF: